Tongdao, China
Current Conditions -  °F | °C
As of 12:00 PM on Saturday 20 Dec 2014 (Local Time) from ZGKL Reporting Station
Clear Clear  
Wind Chill: 57°   Ceiling: Unl
Heat Index: 57°   Visibility: 5mi
Dew Point: 34°   Wind: 2mph
Humidity: 41%   Direction: NA
Pressure: 30.24"   Gusts: NA
Location:  26.17°N, 109.78°E
Report Text: ZGKL 200400Z VRB01MPS 8000 NSC 14/01 Q1024 NOSIG
Loading
Personal Weather Stations






























Interactive Weather Map New forecast layout! Learn more

10-Day Weather Forecast

Advertisements
Track Severe Weather on mobile